Time;durP1;ratioP1;P1;durP2;ratioP2;P2;SDS_P1;SDS_P2;PMS_P1;PMS_P2;Temp;Humidity;BMP_temperature;BMP_pressure;BME280_temperature;BME280_humidity;BME280_pressure;Samples;Min_cycle;Max_cycle;Signal;HPM_P1;HPM_P2
2023/03/31 00:01:35;;;;;;;0.50;0.50;;;;;;;12.38;68.12;100352.56;5036137;28;20107;-81
2023/03/31 00:04:03;;;;;;;0.15;0.15;;;;;;;12.39;68.19;100342.81;5035499;28;20109;-81
2023/03/31 00:06:36;;;;;;;0.45;0.45;;;;;;;12.39;68.28;100332.19;5036382;28;20034;-80
2023/03/31 00:09:05;;;;;;;0.10;0.10;;;;;;;12.42;68.25;100318.78;5035824;28;20022;-80
2023/03/31 00:11:31;;;;;;;0.10;0.10;;;;;;;12.41;68.58;100319.69;5036498;28;20104;-80
2023/03/31 00:13:57;;;;;;;0.30;0.30;;;;;;;12.43;67.86;100318.72;5036738;28;20219;-80
2023/03/31 00:16:24;;;;;;;0.68;0.65;;;;;;;12.44;68.25;100303.66;5036391;28;20021;-78
2023/03/31 00:18:50;;;;;;;0.08;0.08;;;;;;;12.45;68.32;100295.63;5033065;28;20022;-79
2023/03/31 00:21:35;;;;;;;0.65;0.65;;;;;;;12.50;68.22;100286.63;5032823;28;20065;-80
2023/03/31 00:26:38;;;;;;;0.10;0.10;;;;;;;12.50;68.94;100289.28;5137457;27;20406;-79
2023/03/31 00:29:06;;;;;;;0.10;0.10;;;;;;;12.58;68.36;100281.91;5122405;28;20023;-80
2023/03/31 00:31:32;;;;;;;0.20;0.20;;;;;;;12.61;68.99;100271.13;5112822;28;20705;-80
2023/03/31 00:33:59;;;;;;;0.10;0.10;;;;;;;12.61;69.40;100256.06;5112868;28;20027;-79
2023/03/31 00:36:26;;;;;;;0.35;0.22;;;;;;;12.66;69.06;100255.91;5104508;28;20110;-78
2023/03/31 00:38:55;;;;;;;0.15;0.15;;;;;;;12.66;69.50;100249.72;5103641;28;20035;-79
2023/03/31 00:41:21;;;;;;;0.10;0.10;;;;;;;12.66;69.79;100242.63;5113874;28;20111;-80
2023/03/31 00:44:09;;;;;;;0.10;0.10;;;;;;;12.70;70.58;100240.72;5110177;28;20068;-80
2023/03/31 00:49:39;;;;;;;0.13;0.13;;;;;;;12.67;70.28;100232.84;5116275;27;1192351;-77
2023/03/31 00:54:49;;;;;;;0.10;0.10;;;;;;;12.65;71.41;100230.25;5051381;28;20479;-79
2023/03/31 00:57:16;;;;;;;0.10;0.10;;;;;;;12.61;71.03;100229.50;5052834;28;20025;-80
2023/03/31 00:59:48;;;;;;;0.10;0.10;;;;;;;12.66;71.44;100220.47;5033484;28;20026;-81
2023/03/31 01:02:15;;;;;;;;;;;;;;;12.83;70.50;100218.03;5032582;28;20034;-78
2023/03/31 01:04:45;;;;;;;2.10;2.00;;;;;;;12.75;71.00;100212.16;5031943;28;19917;-80
2023/03/31 01:07:21;;;;;;;3.15;1.08;;;;;;;12.83;71.40;100206.53;5032561;28;20468;-80
2023/03/31 01:09:49;;;;;;;0.10;0.10;;;;;;;12.87;70.73;100206.34;5036474;28;20075;-80
2023/03/31 01:12:18;;;;;;;0.20;0.20;;;;;;;12.85;71.09;100194.06;5032430;28;20032;-79
2023/03/31 01:14:44;;;;;;;0.10;0.10;;;;;;;12.81;71.27;100195.97;5033723;28;20026;-80
2023/03/31 01:17:10;;;;;;;0.10;0.10;;;;;;;12.85;71.07;100189.59;5034530;28;20040;-80
2023/03/31 01:19:55;;;;;;;0.10;0.10;;;;;;;13.02;71.25;100188.03;5035045;28;20052;-80
2023/03/31 01:28:22;;;;;;;0.10;0.10;;;;;;;13.09;71.09;100163.78;5115613;27;20750;-79
2023/03/31 01:31:10;;;;;;;0.20;0.20;;;;;;;13.10;71.38;100154.88;5093464;28;20089;-80
2023/03/31 01:41:57;;;;;;;0.10;0.10;;;;;;;13.05;71.39;100140.06;5071535;28;20426;-80
2023/03/31 01:47:12;;;;;;;0.10;0.10;;;;;;;13.07;71.89;100124.88;5120011;27;20400;-80
2023/03/31 01:49:47;;;;;;;0.10;0.10;;;;;;;13.10;71.88;100122.09;5114309;28;20046;-80
2023/03/31 01:52:53;;;;;;;0.10;0.10;;;;;;;13.13;71.94;100111.31;5110279;28;20384;-80
2023/03/31 01:55:28;;;;;;;0.10;0.10;;;;;;;13.08;72.44;100110.66;5109518;28;20084;-79
2023/03/31 01:58:02;;;;;;;0.10;0.10;;;;;;;13.01;72.72;100093.22;5109430;28;20463;-79
2023/03/31 02:00:33;;;;;;;0.10;0.10;;;;;;;12.97;72.88;100092.50;5108064;28;20039;-80
2023/03/31 02:03:15;;;;;;;0.80;0.80;;;;;;;13.04;73.01;100075.34;5112587;28;20027;-78
2023/03/31 02:05:48;;;;;;;0.10;0.10;;;;;;;13.04;72.63;100085.13;5118651;28;20047;-79
2023/03/31 02:08:21;;;;;;;0.20;0.20;;;;;;;12.95;72.89;100068.63;5109585;28;20540;-78
2023/03/31 02:10:49;;;;;;;0.10;0.10;;;;;;;12.95;73.11;100070.44;5112310;28;20024;-80
2023/03/31 02:13:17;;;;;;;0.10;0.10;;;;;;;12.95;73.77;100060.66;5114736;28;20555;-80
2023/03/31 02:15:50;;;;;;;0.10;0.10;;;;;;;12.98;73.63;100058.81;5110403;28;20031;-80
2023/03/31 02:18:21;;;;;;;0.20;0.20;;;;;;;12.91;73.66;100051.09;5103286;28;20024;-80
2023/03/31 02:20:48;;;;;;;0.00;0.00;;;;;;;12.87;73.84;100038.88;5109288;28;20028;-79
2023/03/31 02:23:18;;;;;;;2.75;1.95;;;;;;;12.75;74.12;100031.41;5108156;28;20050;-81
2023/03/31 02:25:50;;;;;;;3.00;1.17;;;;;;;12.76;73.52;100022.47;5107688;28;20103;-80
2023/03/31 02:28:22;;;;;;;0.10;0.10;;;;;;;12.74;72.92;100013.72;5108148;28;20385;-79
2023/03/31 02:31:27;;;;;;;0.13;0.13;;;;;;;12.61;72.72;99998.28;5108608;28;20054;-79
2023/03/31 02:33:53;;;;;;;0.20;0.20;;;;;;;12.61;72.68;99992.09;5102098;28;20496;-79
2023/03/31 02:36:20;;;;;;;0.10;0.10;;;;;;;12.62;73.19;99980.53;5108367;28;20445;-79
2023/03/31 02:38:52;;;;;;;0.10;0.10;;;;;;;12.56;73.35;99972.81;5108771;28;20485;-79
2023/03/31 02:41:18;;;;;;;0.10;0.10;;;;;;;12.59;73.38;99962.94;5107685;28;20039;-78
2023/03/31 02:43:44;;;;;;;0.10;0.10;;;;;;;12.54;73.74;99956.94;5100185;28;20114;-79
2023/03/31 02:46:10;;;;;;;0.10;0.10;;;;;;;12.56;74.38;99952.44;5103261;28;20072;-79
2023/03/31 02:48:40;;;;;;;2.05;1.85;;;;;;;12.60;74.44;99948.72;5106896;28;20036;-80
2023/03/31 02:51:22;;;;;;;0.10;0.10;;;;;;;12.64;74.83;99944.16;5101997;28;20036;-79
2023/03/31 02:54:17;;;;;;;0.10;0.10;;;;;;;12.67;74.95;99921.88;5103230;28;20028;-79
2023/03/31 02:57:15;;;;;;;0.10;0.10;;;;;;;12.69;74.76;99915.56;5097753;27;20032;-79
2023/03/31 03:00:13;;;;;;;0.40;0.40;;;;;;;12.74;74.26;99912.72;5086941;28;20020;-78
2023/03/31 03:03:06;;;;;;;0.10;0.10;;;;;;;12.61;75.29;99896.44;5085462;28;20031;-79
2023/03/31 03:06:01;;;;;;;0.45;0.45;;;;;;;12.71;74.67;99886.25;5091299;28;20027;-79
2023/03/31 03:08:49;;;;;;;0.05;0.05;;;;;;;12.68;75.19;99881.94;5087872;28;20028;-80
2023/03/31 03:11:42;;;;;;;0.10;0.10;;;;;;;12.68;74.60;99873.97;5092902;28;20028;-80
2023/03/31 03:14:22;;;;;;;0.10;0.10;;;;;;;12.66;75.04;99877.63;5093072;28;20507;-78
2023/03/31 03:16:56;;;;;;;0.10;0.10;;;;;;;12.62;74.50;99869.81;5093917;28;20016;-78
2023/03/31 03:19:23;;;;;;;0.10;0.10;;;;;;;12.56;75.02;99866.53;5088680;28;20034;-79
2023/03/31 03:21:49;;;;;;;0.10;0.10;;;;;;;12.64;74.43;99864.41;5093399;28;20023;-78
2023/03/31 03:24:16;;;;;;;0.17;0.17;;;;;;;12.61;74.55;99869.84;5085558;28;20032;-79
2023/03/31 03:26:44;;;;;;;0.10;0.10;;;;;;;12.54;74.39;99850.66;5092719;28;20023;-78
2023/03/31 03:29:13;;;;;;;0.10;0.10;;;;;;;12.40;74.52;99851.28;5092016;28;20036;-79
2023/03/31 03:31:40;;;;;;;0.10;0.10;;;;;;;12.41;74.27;99845.03;5087080;28;20028;-79
2023/03/31 03:34:06;;;;;;;0.10;0.10;;;;;;;12.48;74.36;99837.66;5087083;28;20035;-78
2023/03/31 03:36:32;;;;;;;0.10;0.10;;;;;;;12.48;74.16;99828.84;5086953;28;20043;-80
2023/03/31 03:38:58;;;;;;;0.10;0.10;;;;;;;12.42;74.13;99822.88;5090746;28;20032;-78
2023/03/31 03:41:25;;;;;;;0.10;0.10;;;;;;;12.41;74.60;99815.81;5092106;28;20028;-77
2023/03/31 03:43:51;;;;;;;0.03;0.03;;;;;;;12.48;74.01;99805.78;5088514;28;20031;-77
2023/03/31 03:46:17;;;;;;;0.17;0.17;;;;;;;12.51;74.32;99792.38;5085816;28;20033;-79
2023/03/31 03:48:43;;;;;;;0.10;0.10;;;;;;;12.45;74.69;99785.53;5087826;28;20040;-78
2023/03/31 03:51:09;;;;;;;0.13;0.13;;;;;;;12.51;74.69;99776.44;5089967;28;20056;-79
2023/03/31 03:53:35;;;;;;;0.10;0.10;;;;;;;12.47;75.25;99769.50;5092150;28;20051;-78
2023/03/31 03:56:01;;;;;;;0.10;0.10;;;;;;;12.47;75.13;99758.88;5088019;28;20028;-79
2023/03/31 03:58:27;;;;;;;0.10;0.10;;;;;;;12.47;75.47;99748.25;5089615;28;20035;-78
2023/03/31 04:00:55;;;;;;;0.10;0.10;;;;;;;12.48;75.35;99736.69;5095126;28;20093;-78
2023/03/31 04:03:21;;;;;;;0.17;0.17;;;;;;;12.50;75.28;99737.50;5091918;28;20024;-77
2023/03/31 04:05:49;;;;;;;0.10;0.10;;;;;;;12.46;75.57;99727.94;5088062;28;20386;-80
2023/03/31 04:08:15;;;;;;;0.30;0.30;;;;;;;12.50;75.47;99737.50;5090492;28;20028;-80
2023/03/31 04:10:47;;;;;;;0.10;0.10;;;;;;;12.50;75.76;99732.19;5092215;28;20038;-80
2023/03/31 04:13:14;;;;;;;0.15;0.15;;;;;;;12.50;75.34;99720.69;5092704;28;20031;-80
2023/03/31 04:15:41;;;;;;;0.05;0.05;;;;;;;12.53;75.56;99716.09;5090302;28;20065;-78
2023/03/31 04:18:09;;;;;;;0.10;0.10;;;;;;;12.57;75.41;99704.41;5089207;28;20028;-78
2023/03/31 04:20:36;;;;;;;0.10;0.10;;;;;;;12.50;75.28;99702.97;5091453;28;20039;-79
2023/03/31 04:23:04;;;;;;;0.10;0.10;;;;;;;12.43;75.49;99696.22;5088516;28;20031;-78
2023/03/31 04:25:31;;;;;;;0.10;0.10;;;;;;;12.40;75.85;99688.34;5085587;28;20024;-81
2023/03/31 04:27:57;;;;;;;0.10;0.10;;;;;;;12.39;75.69;99689.31;5084696;28;20035;-80
2023/03/31 04:30:29;;;;;;;0.10;0.10;;;;;;;12.43;75.98;99680.25;5087053;28;20050;-80
2023/03/31 04:32:58;;;;;;;0.20;0.20;;;;;;;12.41;75.64;99675.03;5091713;28;20517;-79
2023/03/31 04:35:37;;;;;;;0.10;0.10;;;;;;;12.35;75.52;99662.03;5091711;28;20056;-80
2023/03/31 04:38:03;;;;;;;0.10;0.10;;;;;;;12.45;75.43;99662.47;5087095;28;20029;-80
2023/03/31 04:40:29;;;;;;;0.03;0.03;;;;;;;12.42;75.45;99662.59;5092256;28;20028;-80
2023/03/31 04:42:55;;;;;;;0.08;0.08;;;;;;;12.38;76.14;99656.56;5090875;28;20044;-79
2023/03/31 04:45:21;;;;;;;0.10;0.10;;;;;;;12.40;75.75;99643.19;5093551;28;20021;-79
2023/03/31 04:47:47;;;;;;;0.30;0.30;;;;;;;12.40;75.30;99638.78;5084793;28;20028;-79
2023/03/31 04:50:13;;;;;;;0.10;0.10;;;;;;;12.41;75.64;99624.56;5089218;28;20024;-80
2023/03/31 04:52:40;;;;;;;0.10;0.10;;;;;;;12.42;75.62;99626.28;5090110;28;20485;-78
2023/03/31 04:55:06;;;;;;;0.00;0.00;;;;;;;12.39;75.60;99620.25;5088349;28;20035;-78
2023/03/31 04:57:32;;;;;;;0.10;0.10;;;;;;;12.40;75.43;99616.63;5081463;28;20039;-79
2023/03/31 04:59:58;;;;;;;0.98;0.85;;;;;;;12.40;75.67;99612.22;5086729;28;20039;-80
2023/03/31 05:02:25;;;;;;;1.55;1.45;;;;;;;12.39;75.38;99610.47;5088444;28;20020;-80
2023/03/31 05:04:51;;;;;;;0.95;0.95;;;;;;;12.40;75.16;99616.63;5085752;28;20173;-80
2023/03/31 05:07:18;;;;;;;0.00;0.00;;;;;;;12.28;75.42;99605.66;5090475;28;20038;-80
2023/03/31 05:09:44;;;;;;;0.10;0.10;;;;;;;12.34;75.74;99596.56;5088676;28;20032;-78
2023/03/31 05:12:10;;;;;;;0.10;0.10;;;;;;;12.34;75.17;99595.72;5091080;28;20045;-79
2023/03/31 05:14:36;;;;;;;0.10;0.10;;;;;;;12.29;76.08;99588.81;5089562;28;20077;-80
2023/03/31 05:17:02;;;;;;;0.10;0.10;;;;;;;12.35;75.28;99589.44;5086649;28;20028;-80
2023/03/31 05:19:29;;;;;;;0.10;0.10;;;;;;;12.31;75.87;99572.78;5086374;28;20377;-80
2023/03/31 05:21:55;;;;;;;0.13;0.13;;;;;;;12.23;75.65;99575.81;5089017;28;20107;-79
2023/03/31 05:24:21;;;;;;;0.10;0.10;;;;;;;12.22;75.69;99576.75;5086945;28;20038;-80
2023/03/31 05:26:51;;;;;;;1.02;0.88;;;;;;;12.29;75.44;99577.34;5086308;28;20054;-80
2023/03/31 05:29:19;;;;;;;0.28;0.28;;;;;;;12.30;75.97;99571.09;5087031;28;20044;-81
2023/03/31 05:31:45;;;;;;;0.10;0.10;;;;;;;12.23;76.16;99559.88;5084561;28;20511;-80
2023/03/31 05:34:12;;;;;;;0.10;0.10;;;;;;;12.30;75.75;99568.44;5083813;28;20039;-79
2023/03/31 05:36:38;;;;;;;0.10;0.10;;;;;;;12.32;75.71;99555.91;5085871;28;20488;-79
2023/03/31 05:39:06;;;;;;;0.10;0.10;;;;;;;12.27;75.64;99564.13;5083977;28;20032;-82
2023/03/31 05:41:32;;;;;;;0.10;0.10;;;;;;;12.28;75.59;99555.22;5084997;28;20032;-80
2023/03/31 05:43:58;;;;;;;0.10;0.10;;;;;;;12.32;75.61;99552.41;5091562;28;20302;-81
2023/03/31 05:46:25;;;;;;;0.08;0.08;;;;;;;12.27;75.41;99553.50;5088868;28;20496;-79
2023/03/31 05:48:51;;;;;;;0.15;0.15;;;;;;;12.37;75.07;99555.72;5085116;28;20122;-80
2023/03/31 05:51:17;;;;;;;0.90;0.90;;;;;;;12.33;75.53;99551.50;5085221;28;20035;-80
2023/03/31 05:53:44;;;;;;;0.10;0.10;;;;;;;12.22;75.29;99549.34;5088273;28;20042;-81
2023/03/31 05:56:11;;;;;;;0.10;0.10;;;;;;;12.29;75.62;99548.97;5096195;28;20524;-81
2023/03/31 05:58:37;;;;;;;0.10;0.10;;;;;;;12.28;75.32;99544.59;5083498;28;20421;-79
2023/03/31 06:01:08;;;;;;;0.10;0.10;;;;;;;12.25;75.01;99544.75;5084849;28;20032;-78
2023/03/31 06:03:37;;;;;;;0.10;0.10;;;;;;;12.27;74.71;99540.22;5089094;28;20040;-80
2023/03/31 06:06:04;;;;;;;0.10;0.10;;;;;;;12.28;74.80;99539.28;5089228;28;20103;-80
2023/03/31 06:08:31;;;;;;;0.10;0.10;;;;;;;12.38;75.07;99529.06;5085712;28;20034;-81
2023/03/31 06:10:57;;;;;;;0.10;0.10;;;;;;;12.37;74.03;99529.16;5088126;28;20048;-80
2023/03/31 06:13:23;;;;;;;0.10;0.10;;;;;;;12.36;74.30;99532.72;5090924;28;20036;-81
2023/03/31 06:15:55;;;;;;;0.10;0.10;;;;;;;12.37;74.53;99531.81;5086469;28;20469;-80
2023/03/31 06:18:21;;;;;;;0.17;0.17;;;;;;;12.27;74.23;99537.56;5087948;28;20389;-78
2023/03/31 06:20:48;;;;;;;0.55;0.55;;;;;;;12.28;74.30;99533.13;5086488;28;20017;-79
2023/03/31 06:23:14;;;;;;;0.35;0.35;;;;;;;12.25;73.74;99533.25;5086541;28;20039;-79
2023/03/31 06:25:40;;;;;;;0.10;0.10;;;;;;;12.36;73.85;99524.75;5079912;28;20020;-80
2023/03/31 06:28:06;;;;;;;0.20;0.20;;;;;;;12.38;74.01;99521.09;5081149;28;20489;-81
2023/03/31 06:30:33;;;;;;;0.10;0.10;;;;;;;12.36;74.33;99525.66;5076270;28;20028;-80
2023/03/31 06:32:59;;;;;;;0.10;0.10;;;;;;;12.35;74.31;99512.41;5079268;28;20028;-80
2023/03/31 06:35:25;;;;;;;0.10;0.10;;;;;;;12.30;74.44;99510.84;5078284;28;20036;-80
2023/03/31 06:37:51;;;;;;;0.10;0.10;;;;;;;12.32;73.80;99508.13;5081018;28;20025;-81
2023/03/31 06:40:18;;;;;;;0.10;0.10;;;;;;;12.36;73.69;99503.50;5087587;28;20039;-80
2023/03/31 06:42:44;;;;;;;0.10;0.10;;;;;;;12.37;74.23;99502.59;5083972;28;20031;-80
2023/03/31 06:45:10;;;;;;;0.10;0.10;;;;;;;12.30;74.45;99497.56;5086120;28;20082;-80
2023/03/31 06:47:37;;;;;;;0.43;0.43;;;;;;;12.37;74.66;99499.94;5084540;28;20095;-80
2023/03/31 06:50:04;;;;;;;0.10;0.10;;;;;;;12.41;74.32;99493.53;5092106;28;20050;-80
2023/03/31 06:52:31;;;;;;;0.00;0.00;;;;;;;12.48;74.85;99492.28;5094129;28;20027;-79
2023/03/31 06:54:57;;;;;;;0.10;0.10;;;;;;;12.53;74.54;99490.25;5089900;28;20409;-79
2023/03/31 06:57:23;;;;;;;0.10;0.10;;;;;;;12.47;74.88;99490.56;5094321;28;20031;-81
2023/03/31 06:59:49;;;;;;;0.10;0.10;;;;;;;12.55;74.61;99484.91;5082106;28;20028;-79
2023/03/31 07:02:15;;;;;;;0.10;0.10;;;;;;;12.52;74.59;99485.88;5085218;28;20126;-79
2023/03/31 07:04:41;;;;;;;0.20;0.20;;;;;;;12.50;75.19;99474.50;5078539;28;20036;-80
2023/03/31 07:07:07;;;;;;;0.10;0.10;;;;;;;12.58;74.54;99474.09;5080630;28;20032;-80
2023/03/31 07:09:36;;;;;;;0.10;0.10;;;;;;;12.66;74.99;99468.38;5086948;28;20032;-81
2023/03/31 07:12:05;;;;;;;0.10;0.10;;;;;;;12.75;74.73;99470.59;5088418;28;20085;-79
2023/03/31 07:14:32;;;;;;;0.13;0.13;;;;;;;12.77;74.96;99461.59;5092281;28;20043;-80
2023/03/31 07:16:58;;;;;;;0.10;0.10;;;;;;;12.79;74.60;99469.50;5089440;28;20031;-78
2023/03/31 07:19:24;;;;;;;0.10;0.10;;;;;;;12.81;74.96;99467.63;5087720;28;20028;-86
2023/03/31 07:21:52;;;;;;;0.08;0.08;;;;;;;12.76;74.75;99466.97;5088221;28;20107;-80
2023/03/31 07:24:18;;;;;;;0.10;0.10;;;;;;;12.84;75.00;99463.94;5082572;28;20031;-80
2023/03/31 07:26:44;;;;;;;0.08;0.08;;;;;;;12.78;74.87;99467.75;5085665;28;20027;-81
2023/03/31 07:29:10;;;;;;;0.10;0.10;;;;;;;12.83;74.56;99455.09;5082249;28;20375;-81
2023/03/31 07:31:36;;;;;;;0.10;0.10;;;;;;;12.82;74.81;99452.53;5089089;28;20020;-80
2023/03/31 07:34:03;;;;;;;0.10;0.10;;;;;;;12.85;74.71;99450.56;5086527;28;20179;-76
2023/03/31 07:36:30;;;;;;;0.43;0.43;;;;;;;12.84;74.95;99456.81;5097398;28;20040;-80
2023/03/31 07:38:56;;;;;;;0.03;0.03;;;;;;;12.91;74.46;99460.00;5101835;28;20057;-80
2023/03/31 07:41:25;;;;;;;0.10;0.10;;;;;;;12.99;74.94;99454.31;5101422;28;20040;-80
2023/03/31 07:43:51;;;;;;;0.20;0.20;;;;;;;13.10;74.94;99457.25;5097979;28;20114;-81
2023/03/31 07:46:24;;;;;;;0.10;0.10;;;;;;;13.21;74.83;99448.72;5102326;28;20038;-80
2023/03/31 07:48:51;;;;;;;1.02;1.02;;;;;;;13.22;74.63;99447.75;5096065;28;20055;-80
2023/03/31 07:51:21;;;;;;;0.10;0.10;;;;;;;13.24;74.09;99444.06;5091841;28;20046;-80
2023/03/31 07:53:48;;;;;;;0.10;0.10;;;;;;;13.23;73.24;99442.38;5086176;28;20024;-80
2023/03/31 07:56:15;;;;;;;0.10;0.10;;;;;;;13.41;73.79;99440.56;5082301;28;20052;-78
2023/03/31 07:58:43;;;;;;;0.10;0.10;;;;;;;13.40;73.66;99436.16;5082456;28;20496;-79
2023/03/31 08:01:11;;;;;;;0.90;0.90;;;;;;;13.42;73.46;99436.06;5078056;28;20028;-81
2023/03/31 08:03:37;;;;;;;0.25;0.25;;;;;;;13.43;73.61;99435.13;5081328;28;20427;-81
2023/03/31 08:06:03;;;;;;;0.10;0.10;;;;;;;13.45;73.46;99427.09;5088175;28;20078;-78
2023/03/31 08:08:32;;;;;;;0.10;0.10;;;;;;;13.47;73.32;99428.72;5085483;28;20032;-79
2023/03/31 08:10:58;;;;;;;0.10;0.10;;;;;;;13.47;73.27;99418.09;5088361;28;20028;-79
2023/03/31 08:13:25;;;;;;;0.10;0.10;;;;;;;13.47;73.16;99417.22;5083584;28;20489;-78
2023/03/31 08:15:51;;;;;;;1.65;1.55;;;;;;;13.46;73.24;99424.34;5085226;28;20089;-79
2023/03/31 08:18:18;;;;;;;0.10;0.10;;;;;;;13.40;73.13;99401.59;5094999;28;20039;-80
2023/03/31 08:20:44;;;;;;;0.10;0.10;;;;;;;13.30;73.12;99404.81;5090075;28;20527;-79
2023/03/31 08:23:10;;;;;;;1.05;1.05;;;;;;;13.33;73.77;99401.97;5100516;28;20107;-79
2023/03/31 08:25:37;;;;;;;7.70;0.40;;;;;;;13.30;73.29;99399.50;5094343;28;20025;-79
2023/03/31 08:28:05;;;;;;;0.20;0.20;;;;;;;13.21;73.71;99408.84;5092538;28;20028;-79
2023/03/31 08:30:32;;;;;;;0.15;0.15;;;;;;;13.17;74.04;99401.94;5091118;28;20409;-77
2023/03/31 08:32:58;;;;;;;0.10;0.10;;;;;;;13.16;74.04;99401.09;5085581;28;20054;-80
2023/03/31 08:35:24;;;;;;;0.10;0.10;;;;;;;13.13;74.19;99393.25;5083898;28;20058;-80
2023/03/31 08:37:50;;;;;;;0.10;0.10;;;;;;;13.04;73.76;99399.09;5078650;28;20020;-80
2023/03/31 08:40:22;;;;;;;0.10;0.10;;;;;;;13.08;73.13;99384.69;5078711;28;20045;-81
2023/03/31 08:42:54;;;;;;;0.10;0.10;;;;;;;13.19;73.61;99386.78;5094339;28;20057;-79
2023/03/31 08:45:31;;;;;;;0.10;0.10;;;;;;;13.21;74.07;99380.44;5093663;28;20032;-79
2023/03/31 08:48:03;;;;;;;0.10;0.10;;;;;;;13.34;73.74;99379.75;5097775;28;20039;-80
2023/03/31 08:50:33;;;;;;;0.10;0.10;;;;;;;13.40;74.10;99377.63;5097527;28;20023;-80
2023/03/31 08:55:49;;;;;;;0.10;0.10;;;;;;;13.76;73.55;99375.69;5073272;28;20367;-81
2023/03/31 08:58:28;;;;;;;0.75;0.75;;;;;;;13.85;72.64;99366.31;5070500;28;20032;-80
2023/03/31 09:01:18;;;;;;;2.47;2.28;;;;;;;13.91;72.52;99363.28;5069378;28;20013;-80
2023/03/31 09:04:06;;;;;;;0.10;0.10;;;;;;;14.02;71.57;99368.84;5069106;28;20044;-80
2023/03/31 09:09:38;;;;;;;0.22;0.22;;;;;;;14.14;70.74;99358.44;5109552;27;20393;-81
2023/03/31 09:12:13;;;;;;;0.20;0.20;;;;;;;14.07;69.39;99353.47;5103511;27;20112;-81
2023/03/31 09:14:50;;;;;;;0.30;0.30;;;;;;;14.16;69.07;99356.53;5107003;28;20065;-80
2023/03/31 09:17:23;;;;;;;0.17;0.17;;;;;;;14.34;69.16;99354.56;5104882;27;20024;-81
2023/03/31 09:20:08;;;;;;;0.10;0.10;;;;;;;14.45;69.72;99354.78;5100757;28;20040;-81
2023/03/31 09:22:41;;;;;;;0.10;0.10;;;;;;;14.53;69.33;99355.19;5093936;27;20032;-81
2023/03/31 09:25:17;;;;;;;0.10;0.10;;;;;;;14.66;69.13;99344.66;5093719;28;20070;-81
2023/03/31 09:27:46;;;;;;;0.10;0.10;;;;;;;14.53;68.12;99349.88;5093475;28;20016;-81
2023/03/31 09:30:19;;;;;;;0.10;0.10;;;;;;;14.49;67.96;99340.34;5094262;28;20058;-81
2023/03/31 09:32:51;;;;;;;0.10;0.10;;;;;;;14.56;67.58;99348.81;5094961;28;20028;-80
2023/03/31 09:35:21;;;;;;;0.57;0.57;;;;;;;14.38;67.09;99334.78;5093863;28;20111;-81
2023/03/31 09:37:48;;;;;;;0.10;0.10;;;;;;;14.40;67.33;99339.09;5092275;28;20024;-81
2023/03/31 09:40:21;;;;;;;1.45;1.35;;;;;;;14.37;67.32;99335.75;5093727;28;20062;-80
2023/03/31 09:42:56;;;;;;;0.10;0.10;;;;;;;14.39;66.96;99348.03;5092356;28;20036;-81
2023/03/31 09:45:23;;;;;;;0.10;0.10;;;;;;;14.44;66.29;99339.75;5092406;28;20028;-81
2023/03/31 09:47:52;;;;;;;0.55;0.55;;;;;;;14.51;66.58;99330.44;5093521;28;20376;-83
2023/03/31 09:50:20;;;;;;;0.10;0.10;;;;;;;14.51;66.07;99327.78;5095987;28;20032;-84
2023/03/31 09:52:51;;;;;;;0.00;0.00;;;;;;;14.64;66.19;99324.38;5111719;28;20028;-81
2023/03/31 09:55:55;;;;;;;0.10;0.10;;;;;;;14.64;65.58;99314.56;5096485;28;20302;-83
2023/03/31 09:58:23;;;;;;;2.78;2.30;;;;;;;14.56;64.85;99311.50;5112596;28;20059;-82
2023/03/31 10:01:01;;;;;;;2.42;1.35;;;;;;;14.60;64.84;99304.19;5110494;28;20062;-82
2023/03/31 10:03:28;;;;;;;0.20;0.20;;;;;;;14.57;64.58;99303.41;5108584;28;20039;-81
2023/03/31 10:05:59;;;;;;;0.10;0.10;;;;;;;14.67;64.35;99306.41;5117266;28;20028;-82
2023/03/31 10:08:31;;;;;;;0.10;0.10;;;;;;;14.61;63.67;99314.75;5109279;28;20032;-84
2023/03/31 10:11:10;;;;;;;2.28;0.43;;;;;;;14.61;64.12;99300.56;5107142;28;20055;-84
2023/03/31 10:14:05;;;;;;;0.00;0.00;;;;;;;14.66;63.84;99290.50;5098630;28;20108;-84
2023/03/31 10:16:46;;;;;;;0.20;0.20;;;;;;;14.71;64.39;99297.25;5098780;28;20020;-83
2023/03/31 10:19:20;;;;;;;0.10;0.10;;;;;;;14.76;64.47;99286.31;5090193;28;20024;-84
2023/03/31 10:21:54;;;;;;;0.10;0.10;;;;;;;14.87;64.55;99315.81;5086538;28;20518;-83
2023/03/31 10:24:23;;;;;;;0.10;0.10;;;;;;;14.83;64.30;99284.97;5080135;28;20056;-82
2023/03/31 10:26:54;;;;;;;0.10;0.10;;;;;;;14.67;64.16;99282.41;5085352;28;20047;-81
2023/03/31 10:29:32;;;;;;;0.17;0.17;;;;;;;14.64;63.98;99284.38;5082804;28;20033;-84
2023/03/31 10:32:17;;;;;;;0.10;0.10;;;;;;;14.66;64.45;99298.50;5085904;28;20032;-84
2023/03/31 10:34:46;;;;;;;1.13;1.08;;;;;;;14.63;64.41;99288.00;5087041;28;20024;-84
2023/03/31 10:37:25;;;;;;;0.00;0.00;;;;;;;14.52;64.85;99297.50;5085908;28;20040;-84
2023/03/31 10:43:00;;;;;;;0.15;0.15;;;;;;;14.10;66.63;99293.81;5110523;27;1184597;-80
2023/03/31 10:45:35;;;;;;;0.10;0.10;;;;;;;13.88;67.53;99299.56;5115386;28;20031;-81
2023/03/31 10:48:01;;;;;;;6.05;3.17;;;;;;;13.86;68.21;99299.66;5115872;28;20036;-79
2023/03/31 10:50:30;;;;;;;0.13;0.13;;;;;;;13.97;68.71;99296.38;5110430;28;20027;-80
2023/03/31 10:56:00;;;;;;;0.10;0.10;;;;;;;13.98;68.84;99315.84;5098901;27;20382;-81
2023/03/31 10:58:41;;;;;;;6.75;2.30;;;;;;;13.89;69.14;99295.94;5090768;28;20036;-81
2023/03/31 11:07:15;;;;;;;1.95;1.13;;;;;;;14.03;70.04;99284.47;5062287;28;20139;-81
2023/03/31 11:10:14;;;;;;;0.10;0.10;;;;;;;13.94;69.76;99277.06;5046652;28;20033;-82
2023/03/31 11:15:52;;;;;;;0.22;0.22;;;;;;;14.18;69.64;99278.25;5115507;27;20376;-82
2023/03/31 11:21:46;;;;;;;0.10;0.10;;;;;;;14.28;69.90;99267.03;5111028;27;20426;-81
2023/03/31 11:24:40;;;;;;;0.75;0.75;;;;;;;14.20;69.43;99271.00;5095721;28;20032;-81
2023/03/31 11:27:39;;;;;;;0.10;0.10;;;;;;;14.26;69.19;99258.28;5095498;28;20032;-81
2023/03/31 11:30:35;;;;;;;0.45;0.45;;;;;;;14.34;69.33;99274.66;5087664;28;20024;-81
2023/03/31 11:33:41;;;;;;;0.10;0.10;;;;;;;13.95;67.03;99265.47;5092475;28;20158;-81
2023/03/31 11:36:35;;;;;;;0.40;0.40;;;;;;;13.93;66.92;99259.34;5094284;28;20460;-81
2023/03/31 11:41:46;;;;;;;0.10;0.10;;;;;;;14.06;67.98;99276.31;5074964;28;20127;-81
2023/03/31 11:44:15;;;;;;;0.10;0.10;;;;;;;14.13;67.96;99267.03;5064837;28;20029;-81
2023/03/31 11:46:57;;;;;;;0.10;0.10;;;;;;;14.27;67.12;99263.53;5068988;28;20025;-82
2023/03/31 11:49:26;;;;;;;;;;;;;;;14.33;66.44;99239.16;5067000;28;20029;-81
2023/03/31 12:05:30;;;;;;;0.23;0.23;;;;;;;13.89;67.92;99240.91;5117184;27;1179777;-82
2023/03/31 12:08:26;;;;;;;0.17;0.17;;;;;;;14.18;67.77;99240.97;5134791;27;20602;-82
2023/03/31 12:11:14;;;;;;;0.20;0.20;;;;;;;14.16;67.76;99234.84;5132410;28;20034;-82
2023/03/31 12:13:50;;;;;;;0.43;0.43;;;;;;;14.23;67.88;99233.53;5135576;27;20032;-81
2023/03/31 12:16:25;;;;;;;0.10;0.10;;;;;;;14.07;67.80;99228.28;5135764;28;20034;-83
2023/03/31 12:19:21;;;;;;;1.65;1.55;;;;;;;14.01;68.15;99225.16;5135752;27;20103;-82
2023/03/31 12:21:54;;;;;;;0.10;0.10;;;;;;;14.02;68.86;99208.22;5129304;28;20072;-82
2023/03/31 12:24:20;;;;;;;0.10;0.10;;;;;;;14.02;68.55;99230.38;5137862;27;20122;-82
2023/03/31 12:27:00;;;;;;;0.10;0.10;;;;;;;14.02;69.01;99206.41;5139139;28;20027;-83
2023/03/31 12:29:33;;;;;;;0.20;0.20;;;;;;;14.12;69.20;99212.03;5131215;27;20050;-81
2023/03/31 12:32:06;;;;;;;0.35;0.35;;;;;;;14.17;69.13;99199.28;5121050;28;20027;-82
2023/03/31 12:34:36;;;;;;;0.10;0.10;;;;;;;14.11;67.98;99205.00;5131201;27;20015;-81
2023/03/31 12:37:32;;;;;;;0.38;0.38;;;;;;;14.21;68.41;99200.81;5131726;27;20024;-81
2023/03/31 12:40:19;;;;;;;0.10;0.10;;;;;;;14.00;68.45;99194.13;5131573;27;20022;-82
2023/03/31 12:45:29;;;;;;;0.50;0.50;;;;;;;13.90;68.56;99181.38;5088076;27;20168;-84
2023/03/31 12:56:18;;;;;;;0.10;0.10;;;;;;;14.11;68.08;99165.03;5132424;27;1188089;-80
2023/03/31 12:58:45;;;;;;;0.10;0.10;;;;;;;14.00;67.13;99164.84;5162515;27;21074;-80
2023/03/31 13:01:21;;;;;;;0.10;0.10;;;;;;;14.17;67.76;99155.84;5137289;27;20023;-80
2023/03/31 13:11:52;;;;;;;0.10;0.10;;;;;;;14.39;66.24;99139.34;5112722;27;20893;-80
2023/03/31 13:14:22;;;;;;;0.10;0.10;;;;;;;14.38;65.21;99137.63;5076647;28;20028;-80
2023/03/31 13:16:50;;;;;;;0.10;0.10;;;;;;;14.44;65.09;99145.22;5091034;28;20032;-81